sensor_id;sensor_type;location;lat;lon;timestamp;temperature;humidity
67131;HTU21D;54051;53.464;49.532;2023-05-20T00:00:06;11.62;65.30
67131;HTU21D;54051;53.464;49.532;2023-05-20T00:02:32;11.59;65.35
67131;HTU21D;54051;53.464;49.532;2023-05-20T00:04:58;11.52;65.83
67131;HTU21D;54051;53.464;49.532;2023-05-20T00:07:24;11.58;65.55
67131;HTU21D;54051;53.464;49.532;2023-05-20T00:09:51;11.57;65.69
67131;HTU21D;54051;53.464;49.532;2023-05-20T00:12:19;11.53;65.96
67131;HTU21D;54051;53.464;49.532;2023-05-20T00:14:45;11.51;65.95
67131;HTU21D;54051;53.464;49.532;2023-05-20T00:17:11;11.61;65.36
67131;HTU21D;54051;53.464;49.532;2023-05-20T00:19:36;11.63;65.17
67131;HTU21D;54051;53.464;49.532;2023-05-20T00:22:02;11.62;65.14
67131;HTU21D;54051;53.464;49.532;2023-05-20T00:24:28;11.51;65.51
67131;HTU21D;54051;53.464;49.532;2023-05-20T00:26:54;11.44;66.16
67131;HTU21D;54051;53.464;49.532;2023-05-20T00:29:20;11.42;66.26
67131;HTU21D;54051;53.464;49.532;2023-05-20T00:31:46;11.44;66.21
67131;HTU21D;54051;53.464;49.532;2023-05-20T00:34:12;11.49;66.15
67131;HTU21D;54051;53.464;49.532;2023-05-20T00:36:38;11.52;66.00
67131;HTU21D;54051;53.464;49.532;2023-05-20T00:39:04;11.52;66.11
67131;HTU21D;54051;53.464;49.532;2023-05-20T00:41:30;11.48;66.30
67131;HTU21D;54051;53.464;49.532;2023-05-20T00:43:56;11.34;66.90
67131;HTU21D;54051;53.464;49.532;2023-05-20T00:46:22;11.22;67.43
67131;HTU21D;54051;53.464;49.532;2023-05-20T00:48:48;11.25;67.47
67131;HTU21D;54051;53.464;49.532;2023-05-20T00:51:14;11.18;67.79
67131;HTU21D;54051;53.464;49.532;2023-05-20T00:53:40;11.05;68.31
67131;HTU21D;54051;53.464;49.532;2023-05-20T00:56:07;11.03;68.35
67131;HTU21D;54051;53.464;49.532;2023-05-20T00:58:33;11.11;67.96
67131;HTU21D;54051;53.464;49.532;2023-05-20T01:01:01;11.15;67.75
67131;HTU21D;54051;53.464;49.532;2023-05-20T01:03:27;11.25;67.31
67131;HTU21D;54051;53.464;49.532;2023-05-20T01:05:53;11.26;66.98
67131;HTU21D;54051;53.464;49.532;2023-05-20T01:08:20;11.28;67.12
67131;HTU21D;54051;53.464;49.532;2023-05-20T01:10:46;11.27;67.12
67131;HTU21D;54051;53.464;49.532;2023-05-20T01:13:14;11.30;67.00
67131;HTU21D;54051;53.464;49.532;2023-05-20T01:15:40;11.53;66.27
67131;HTU21D;54051;53.464;49.532;2023-05-20T01:18:08;11.66;65.79
67131;HTU21D;54051;53.464;49.532;2023-05-20T01:20:35;11.83;65.27
67131;HTU21D;54051;53.464;49.532;2023-05-20T01:23:01;11.87;64.93
67131;HTU21D;54051;53.464;49.532;2023-05-20T01:25:28;11.93;64.96
67131;HTU21D;54051;53.464;49.532;2023-05-20T01:27:54;12.06;64.30
67131;HTU21D;54051;53.464;49.532;2023-05-20T01:30:23;12.00;64.53
67131;HTU21D;54051;53.464;49.532;2023-05-20T01:33:00;11.87;65.07
67131;HTU21D;54051;53.464;49.532;2023-05-20T01:35:27;11.94;65.17
67131;HTU21D;54051;53.464;49.532;2023-05-20T01:37:53;11.83;65.50
67131;HTU21D;54051;53.464;49.532;2023-05-20T01:40:20;11.70;66.17
67131;HTU21D;54051;53.464;49.532;2023-05-20T01:42:46;11.67;66.34
67131;HTU21D;54051;53.464;49.532;2023-05-20T01:45:17;11.62;66.75
67131;HTU21D;54051;53.464;49.532;2023-05-20T01:47:46;11.70;66.62
67131;HTU21D;54051;53.464;49.532;2023-05-20T01:50:12;11.75;66.12
67131;HTU21D;54051;53.464;49.532;2023-05-20T01:52:38;11.85;66.10
67131;HTU21D;54051;53.464;49.532;2023-05-20T01:55:04;11.85;65.97
67131;HTU21D;54051;53.464;49.532;2023-05-20T01:57:30;11.97;65.67
67131;HTU21D;54051;53.464;49.532;2023-05-20T01:59:56;12.10;65.17
67131;HTU21D;54051;53.464;49.532;2023-05-20T02:02:21;12.45;64.01
67131;HTU21D;54051;53.464;49.532;2023-05-20T02:04:49;13.07;61.99
67131;HTU21D;54051;53.464;49.532;2023-05-20T02:07:15;15.88;52.34
67131;HTU21D;54051;53.464;49.532;2023-05-20T02:09:41;18.02;45.96
67131;HTU21D;54051;53.464;49.532;2023-05-20T02:12:07;19.60;41.99
67131;HTU21D;54051;53.464;49.532;2023-05-20T02:14:33;20.63;39.04
67131;HTU21D;54051;53.464;49.532;2023-05-20T02:16:59;21.38;37.90
67131;HTU21D;54051;53.464;49.532;2023-05-20T02:19:25;21.53;36.56
67131;HTU21D;54051;53.464;49.532;2023-05-20T02:21:50;21.88;36.08
67131;HTU21D;54051;53.464;49.532;2023-05-20T02:24:17;21.95;35.57
67131;HTU21D;54051;53.464;49.532;2023-05-20T02:26:45;22.79;33.96
67131;HTU21D;54051;53.464;49.532;2023-05-20T02:29:11;23.05;33.39
67131;HTU21D;54051;53.464;49.532;2023-05-20T02:31:37;23.14;33.50
67131;HTU21D;54051;53.464;49.532;2023-05-20T02:34:03;22.60;34.19
67131;HTU21D;54051;53.464;49.532;2023-05-20T02:36:29;21.29;37.54
67131;HTU21D;54051;53.464;49.532;2023-05-20T02:38:56;21.18;37.48
67131;HTU21D;54051;53.464;49.532;2023-05-20T02:41:22;20.47;39.24
67131;HTU21D;54051;53.464;49.532;2023-05-20T02:43:48;20.94;38.46
67131;HTU21D;54051;53.464;49.532;2023-05-20T02:46:14;22.42;35.18
67131;HTU21D;54051;53.464;49.532;2023-05-20T02:48:43;23.47;32.85
67131;HTU21D;54051;53.464;49.532;2023-05-20T02:51:08;24.13;31.41
67131;HTU21D;54051;53.464;49.532;2023-05-20T02:53:35;25.13;30.18
67131;HTU21D;54051;53.464;49.532;2023-05-20T02:56:02;26.15;27.64
67131;HTU21D;54051;53.464;49.532;2023-05-20T02:58:27;26.55;27.45
67131;HTU21D;54051;53.464;49.532;2023-05-20T03:00:53;27.40;26.23
67131;HTU21D;54051;53.464;49.532;2023-05-20T03:03:22;28.18;24.05
67131;HTU21D;54051;53.464;49.532;2023-05-20T03:05:48;27.56;25.22
67131;HTU21D;54051;53.464;49.532;2023-05-20T03:08:14;27.66;25.16
67131;HTU21D;54051;53.464;49.532;2023-05-20T03:10:40;28.01;24.48
67131;HTU21D;54051;53.464;49.532;2023-05-20T03:13:06;27.50;25.68
67131;HTU21D;54051;53.464;49.532;2023-05-20T03:15:33;27.91;24.93
67131;HTU21D;54051;53.464;49.532;2023-05-20T03:18:00;27.68;25.26
67131;HTU21D;54051;53.464;49.532;2023-05-20T03:20:26;26.40;27.46
67131;HTU21D;54051;53.464;49.532;2023-05-20T03:22:53;27.04;27.13
67131;HTU21D;54051;53.464;49.532;2023-05-20T03:25:19;26.76;27.30
67131;HTU21D;54051;53.464;49.532;2023-05-20T03:27:46;25.97;28.42
67131;HTU21D;54051;53.464;49.532;2023-05-20T03:30:11;24.95;30.76
67131;HTU21D;54051;53.464;49.532;2023-05-20T03:32:38;25.20;30.26
67131;HTU21D;54051;53.464;49.532;2023-05-20T03:35:05;25.20;30.67
67131;HTU21D;54051;53.464;49.532;2023-05-20T03:37:31;24.62;31.93
67131;HTU21D;54051;53.464;49.532;2023-05-20T03:39:57;24.79;32.02
67131;HTU21D;54051;53.464;49.532;2023-05-20T03:42:22;25.02;31.35
67131;HTU21D;54051;53.464;49.532;2023-05-20T03:44:48;25.63;30.45
67131;HTU21D;54051;53.464;49.532;2023-05-20T03:47:14;25.37;31.12
67131;HTU21D;54051;53.464;49.532;2023-05-20T03:49:40;25.74;30.39
67131;HTU21D;54051;53.464;49.532;2023-05-20T03:52:06;26.25;29.72
67131;HTU21D;54051;53.464;49.532;2023-05-20T03:54:32;26.62;28.75
67131;HTU21D;54051;53.464;49.532;2023-05-20T03:57:07;26.26;29.29
67131;HTU21D;54051;53.464;49.532;2023-05-20T03:59:35;27.00;28.11
67131;HTU21D;54051;53.464;49.532;2023-05-20T04:02:08;26.95;28.13
67131;HTU21D;54051;53.464;49.532;2023-05-20T04:04:39;27.32;27.98
67131;HTU21D;54051;53.464;49.532;2023-05-20T04:07:10;27.76;27.20
67131;HTU21D;54051;53.464;49.532;2023-05-20T04:09:36;27.78;26.78
67131;HTU21D;54051;53.464;49.532;2023-05-20T04:12:03;28.69;25.61
67131;HTU21D;54051;53.464;49.532;2023-05-20T04:14:28;29.46;23.83
67131;HTU21D;54051;53.464;49.532;2023-05-20T04:16:54;29.18;23.87
67131;HTU21D;54051;53.464;49.532;2023-05-20T04:19:20;29.09;24.21
67131;HTU21D;54051;53.464;49.532;2023-05-20T04:21:48;29.78;23.32
67131;HTU21D;54051;53.464;49.532;2023-05-20T04:24:14;29.92;22.82
67131;HTU21D;54051;53.464;49.532;2023-05-20T04:26:40;30.59;21.98
67131;HTU21D;54051;53.464;49.532;2023-05-20T04:29:05;30.77;21.69
67131;HTU21D;54051;53.464;49.532;2023-05-20T04:31:31;31.67;20.21
67131;HTU21D;54051;53.464;49.532;2023-05-20T04:33:58;32.66;19.23
67131;HTU21D;54051;53.464;49.532;2023-05-20T04:36:23;33.55;18.24
67131;HTU21D;54051;53.464;49.532;2023-05-20T04:38:53;33.74;17.32
67131;HTU21D;54051;53.464;49.532;2023-05-20T04:41:19;33.29;18.65
67131;HTU21D;54051;53.464;49.532;2023-05-20T04:43:45;32.89;19.15
67131;HTU21D;54051;53.464;49.532;2023-05-20T04:46:11;33.20;18.73
67131;HTU21D;54051;53.464;49.532;2023-05-20T04:48:37;33.29;18.71
67131;HTU21D;54051;53.464;49.532;2023-05-20T04:51:02;33.76;18.22
67131;HTU21D;54051;53.464;49.532;2023-05-20T04:53:28;34.14;17.20
67131;HTU21D;54051;53.464;49.532;2023-05-20T04:55:58;33.42;18.94
67131;HTU21D;54051;53.464;49.532;2023-05-20T04:58:24;33.61;19.16
67131;HTU21D;54051;53.464;49.532;2023-05-20T05:00:50;34.21;17.43
67131;HTU21D;54051;53.464;49.532;2023-05-20T05:03:16;34.54;17.03
67131;HTU21D;54051;53.464;49.532;2023-05-20T05:05:42;34.73;16.33
67131;HTU21D;54051;53.464;49.532;2023-05-20T05:08:09;34.29;17.70
67131;HTU21D;54051;53.464;49.532;2023-05-20T05:10:36;34.88;17.19
67131;HTU21D;54051;53.464;49.532;2023-05-20T05:13:02;35.86;15.57
67131;HTU21D;54051;53.464;49.532;2023-05-20T05:15:28;35.94;16.33
67131;HTU21D;54051;53.464;49.532;2023-05-20T05:17:54;35.95;16.13
67131;HTU21D;54051;53.464;49.532;2023-05-20T05:20:20;36.87;14.92
67131;HTU21D;54051;53.464;49.532;2023-05-20T05:22:46;36.33;15.97
67131;HTU21D;54051;53.464;49.532;2023-05-20T05:25:12;35.66;16.84
67131;HTU21D;54051;53.464;49.532;2023-05-20T05:27:38;37.50;14.11
67131;HTU21D;54051;53.464;49.532;2023-05-20T05:30:04;36.81;14.38
67131;HTU21D;54051;53.464;49.532;2023-05-20T05:32:30;36.71;14.75
67131;HTU21D;54051;53.464;49.532;2023-05-20T05:34:57;35.04;17.02
67131;HTU21D;54051;53.464;49.532;2023-05-20T05:37:22;36.53;14.78
67131;HTU21D;54051;53.464;49.532;2023-05-20T05:39:48;38.70;13.11
67131;HTU21D;54051;53.464;49.532;2023-05-20T05:42:14;38.98;12.10
67131;HTU21D;54051;53.464;49.532;2023-05-20T05:44:43;37.74;13.06
67131;HTU21D;54051;53.464;49.532;2023-05-20T05:47:09;37.30;14.29
67131;HTU21D;54051;53.464;49.532;2023-05-20T05:49:35;36.66;14.44
67131;HTU21D;54051;53.464;49.532;2023-05-20T05:52:01;33.82;17.90
67131;HTU21D;54051;53.464;49.532;2023-05-20T05:54:27;33.88;19.06
67131;HTU21D;54051;53.464;49.532;2023-05-20T05:56:53;34.02;18.44
67131;HTU21D;54051;53.464;49.532;2023-05-20T05:59:21;35.75;15.58
67131;HTU21D;54051;53.464;49.532;2023-05-20T06:01:47;36.38;14.78
67131;HTU21D;54051;53.464;49.532;2023-05-20T06:04:12;35.99;15.32
67131;HTU21D;54051;53.464;49.532;2023-05-20T06:06:39;34.14;18.18
67131;HTU21D;54051;53.464;49.532;2023-05-20T06:09:05;32.98;19.41
67131;HTU21D;54051;53.464;49.532;2023-05-20T06:11:30;32.29;21.40
67131;HTU21D;54051;53.464;49.532;2023-05-20T06:13:59;34.94;16.84
67131;HTU21D;54051;53.464;49.532;2023-05-20T06:16:25;35.53;16.25
67131;HTU21D;54051;53.464;49.532;2023-05-20T06:18:51;35.68;15.98
67131;HTU21D;54051;53.464;49.532;2023-05-20T06:21:21;36.00;15.61
67131;HTU21D;54051;53.464;49.532;2023-05-20T06:23:48;35.66;15.61
67131;HTU21D;54051;53.464;49.532;2023-05-20T06:26:14;33.06;19.58
67131;HTU21D;54051;53.464;49.532;2023-05-20T06:28:40;34.60;17.24
67131;HTU21D;54051;53.464;49.532;2023-05-20T06:31:06;34.84;16.98
67131;HTU21D;54051;53.464;49.532;2023-05-20T06:33:31;34.76;17.25
67131;HTU21D;54051;53.464;49.532;2023-05-20T06:35:57;33.62;18.03
67131;HTU21D;54051;53.464;49.532;2023-05-20T06:38:23;32.58;19.29
67131;HTU21D;54051;53.464;49.532;2023-05-20T06:40:49;33.04;19.13
67131;HTU21D;54051;53.464;49.532;2023-05-20T06:43:16;34.08;17.92
67131;HTU21D;54051;53.464;49.532;2023-05-20T06:45:42;35.65;16.04
67131;HTU21D;54051;53.464;49.532;2023-05-20T06:48:08;33.97;17.22
67131;HTU21D;54051;53.464;49.532;2023-05-20T06:50:34;32.71;20.12
67131;HTU21D;54051;53.464;49.532;2023-05-20T06:53:00;33.73;18.60
67131;HTU21D;54051;53.464;49.532;2023-05-20T06:55:26;34.63;17.50
67131;HTU21D;54051;53.464;49.532;2023-05-20T06:57:52;34.79;16.77
67131;HTU21D;54051;53.464;49.532;2023-05-20T07:00:18;35.30;16.31
67131;HTU21D;54051;53.464;49.532;2023-05-20T07:02:49;34.60;17.13
67131;HTU21D;54051;53.464;49.532;2023-05-20T07:05:15;36.59;14.55
67131;HTU21D;54051;53.464;49.532;2023-05-20T07:07:41;38.61;11.58
67131;HTU21D;54051;53.464;49.532;2023-05-20T07:10:07;38.24;12.86
67131;HTU21D;54051;53.464;49.532;2023-05-20T07:12:33;35.13;16.07
67131;HTU21D;54051;53.464;49.532;2023-05-20T07:14:59;34.61;17.09
67131;HTU21D;54051;53.464;49.532;2023-05-20T07:17:25;32.39;19.74
67131;HTU21D;54051;53.464;49.532;2023-05-20T07:19:54;29.05;25.16
67131;HTU21D;54051;53.464;49.532;2023-05-20T07:22:21;30.00;23.82
67131;HTU21D;54051;53.464;49.532;2023-05-20T07:24:46;31.41;21.33
67131;HTU21D;54051;53.464;49.532;2023-05-20T07:27:12;31.01;22.34
67131;HTU21D;54051;53.464;49.532;2023-05-20T07:29:38;30.31;23.10
67131;HTU21D;54051;53.464;49.532;2023-05-20T07:32:05;31.04;22.15
67131;HTU21D;54051;53.464;49.532;2023-05-20T07:34:31;32.08;20.71
67131;HTU21D;54051;53.464;49.532;2023-05-20T07:36:57;32.68;19.45
67131;HTU21D;54051;53.464;49.532;2023-05-20T07:39:22;30.71;22.06
67131;HTU21D;54051;53.464;49.532;2023-05-20T07:41:48;31.78;20.96
67131;HTU21D;54051;53.464;49.532;2023-05-20T07:44:15;31.71;20.76
67131;HTU21D;54051;53.464;49.532;2023-05-20T07:46:45;31.88;20.56
67131;HTU21D;54051;53.464;49.532;2023-05-20T07:49:14;33.38;18.30
67131;HTU21D;54051;53.464;49.532;2023-05-20T07:51:40;32.23;20.10
67131;HTU21D;54051;53.464;49.532;2023-05-20T07:54:06;30.56;21.92
67131;HTU21D;54051;53.464;49.532;2023-05-20T07:56:32;29.97;23.73
67131;HTU21D;54051;53.464;49.532;2023-05-20T07:58:58;30.49;23.08
67131;HTU21D;54051;53.464;49.532;2023-05-20T08:01:25;30.08;26.33
67131;HTU21D;54051;53.464;49.532;2023-05-20T08:03:51;28.98;28.75
67131;HTU21D;54051;53.464;49.532;2023-05-20T08:06:17;27.86;29.22
67131;HTU21D;54051;53.464;49.532;2023-05-20T08:08:46;28.10;28.31
67131;HTU21D;54051;53.464;49.532;2023-05-20T08:11:12;27.32;29.92
67131;HTU21D;54051;53.464;49.532;2023-05-20T08:13:38;26.84;29.85
67131;HTU21D;54051;53.464;49.532;2023-05-20T08:16:04;26.72;30.72
67131;HTU21D;54051;53.464;49.532;2023-05-20T08:18:33;26.64;30.60
67131;HTU21D;54051;53.464;49.532;2023-05-20T08:21:01;26.61;32.23
67131;HTU21D;54051;53.464;49.532;2023-05-20T08:23:27;26.39;32.48
67131;HTU21D;54051;53.464;49.532;2023-05-20T08:25:53;26.22;33.66
67131;HTU21D;54051;53.464;49.532;2023-05-20T08:28:18;26.03;33.64
67131;HTU21D;54051;53.464;49.532;2023-05-20T08:30:45;25.73;33.78
67131;HTU21D;54051;53.464;49.532;2023-05-20T08:33:13;25.92;34.12
67131;HTU21D;54051;53.464;49.532;2023-05-20T08:35:39;26.69;31.86
67131;HTU21D;54051;53.464;49.532;2023-05-20T08:38:05;26.71;31.81
67131;HTU21D;54051;53.464;49.532;2023-05-20T08:40:33;26.99;30.91
67131;HTU21D;54051;53.464;49.532;2023-05-20T08:42:59;26.79;31.11
67131;HTU21D;54051;53.464;49.532;2023-05-20T08:45:26;27.63;29.40
67131;HTU21D;54051;53.464;49.532;2023-05-20T08:47:53;28.19;27.74
67131;HTU21D;54051;53.464;49.532;2023-05-20T08:50:19;28.17;25.54
67131;HTU21D;54051;53.464;49.532;2023-05-20T08:52:45;27.78;25.96
67131;HTU21D;54051;53.464;49.532;2023-05-20T08:57:57;26.10;30.45
67131;HTU21D;54051;53.464;49.532;2023-05-20T09:00:23;24.73;41.11
67131;HTU21D;54051;53.464;49.532;2023-05-20T09:02:53;23.73;39.91
67131;HTU21D;54051;53.464;49.532;2023-05-20T09:05:19;23.42;36.47
67131;HTU21D;54051;53.464;49.532;2023-05-20T09:07:45;23.13;37.17
67131;HTU21D;54051;53.464;49.532;2023-05-20T09:10:11;22.90;37.95
67131;HTU21D;54051;53.464;49.532;2023-05-20T09:12:37;22.85;37.55
67131;HTU21D;54051;53.464;49.532;2023-05-20T09:15:04;22.51;38.88
67131;HTU21D;54051;53.464;49.532;2023-05-20T09:17:30;22.19;39.27
67131;HTU21D;54051;53.464;49.532;2023-05-20T09:19:56;22.14;39.18
67131;HTU21D;54051;53.464;49.532;2023-05-20T09:22:22;22.07;39.46
67131;HTU21D;54051;53.464;49.532;2023-05-20T09:24:49;22.12;40.23
67131;HTU21D;54051;53.464;49.532;2023-05-20T09:27:15;22.32;39.28
67131;HTU21D;54051;53.464;49.532;2023-05-20T09:29:41;22.50;39.43
67131;HTU21D;54051;53.464;49.532;2023-05-20T09:32:09;22.79;38.58
67131;HTU21D;54051;53.464;49.532;2023-05-20T09:34:36;23.28;37.82
67131;HTU21D;54051;53.464;49.532;2023-05-20T09:37:02;23.67;36.49
67131;HTU21D;54051;53.464;49.532;2023-05-20T09:39:31;23.32;37.59
67131;HTU21D;54051;53.464;49.532;2023-05-20T09:42:03;22.80;38.47
67131;HTU21D;54051;53.464;49.532;2023-05-20T09:44:30;22.91;38.45
67131;HTU21D;54051;53.464;49.532;2023-05-20T09:46:56;23.06;38.33
67131;HTU21D;54051;53.464;49.532;2023-05-20T09:49:23;22.67;39.64
67131;HTU21D;54051;53.464;49.532;2023-05-20T09:51:49;22.28;41.07
67131;HTU21D;54051;53.464;49.532;2023-05-20T09:54:17;21.97;41.78
67131;HTU21D;54051;53.464;49.532;2023-05-20T09:56:43;21.54;42.13
67131;HTU21D;54051;53.464;49.532;2023-05-20T09:59:10;21.64;42.28
67131;HTU21D;54051;53.464;49.532;2023-05-20T10:01:38;21.65;42.14
67131;HTU21D;54051;53.464;49.532;2023-05-20T10:04:04;21.64;42.79
67131;HTU21D;54051;53.464;49.532;2023-05-20T10:06:54;21.57;42.72
67131;HTU21D;54051;53.464;49.532;2023-05-20T10:09:27;21.50;43.45
67131;HTU21D;54051;53.464;49.532;2023-05-20T10:12:03;21.79;42.81
67131;HTU21D;54051;53.464;49.532;2023-05-20T10:14:59;21.96;42.10
67131;HTU21D;54051;53.464;49.532;2023-05-20T10:17:24;21.88;42.04
67131;HTU21D;54051;53.464;49.532;2023-05-20T10:19:56;21.76;42.52
67131;HTU21D;54051;53.464;49.532;2023-05-20T10:22:26;21.49;43.21
67131;HTU21D;54051;53.464;49.532;2023-05-20T10:25:05;21.28;44.09
67131;HTU21D;54051;53.464;49.532;2023-05-20T10:27:47;21.36;43.65
67131;HTU21D;54051;53.464;49.532;2023-05-20T10:30:19;21.31;43.79
67131;HTU21D;54051;53.464;49.532;2023-05-20T10:32:50;21.51;43.29
67131;HTU21D;54051;53.464;49.532;2023-05-20T10:35:19;21.66;42.80
67131;HTU21D;54051;53.464;49.532;2023-05-20T10:37:45;21.66;42.83
67131;HTU21D;54051;53.464;49.532;2023-05-20T10:40:12;21.90;42.86
67131;HTU21D;54051;53.464;49.532;2023-05-20T10:42:39;22.05;42.13
67131;HTU21D;54051;53.464;49.532;2023-05-20T10:45:05;22.12;42.03
67131;HTU21D;54051;53.464;49.532;2023-05-20T10:47:31;21.97;42.36
67131;HTU21D;54051;53.464;49.532;2023-05-20T10:49:57;21.77;42.87
67131;HTU21D;54051;53.464;49.532;2023-05-20T10:52:23;21.63;43.89
67131;HTU21D;54051;53.464;49.532;2023-05-20T10:57:19;21.64;45.06
67131;HTU21D;54051;53.464;49.532;2023-05-20T10:59:45;21.81;42.79
67131;HTU21D;54051;53.464;49.532;2023-05-20T11:02:13;21.84;42.87
67131;HTU21D;54051;53.464;49.532;2023-05-20T11:04:40;21.79;43.07
67131;HTU21D;54051;53.464;49.532;2023-05-20T11:07:07;21.67;43.38
67131;HTU21D;54051;53.464;49.532;2023-05-20T11:09:33;21.50;44.87
67131;HTU21D;54051;53.464;49.532;2023-05-20T11:11:59;21.39;46.76
67131;HTU21D;54051;53.464;49.532;2023-05-20T11:14:26;21.35;47.00
67131;HTU21D;54051;53.464;49.532;2023-05-20T11:16:52;21.33;47.59
67131;HTU21D;54051;53.464;49.532;2023-05-20T11:19:20;21.30;47.76
67131;HTU21D;54051;53.464;49.532;2023-05-20T11:21:46;21.38;47.84
67131;HTU21D;54051;53.464;49.532;2023-05-20T11:24:13;21.48;47.56
67131;HTU21D;54051;53.464;49.532;2023-05-20T11:26:39;21.70;47.02
67131;HTU21D;54051;53.464;49.532;2023-05-20T11:29:05;21.83;46.18
67131;HTU21D;54051;53.464;49.532;2023-05-20T11:31:31;21.68;45.80
67131;HTU21D;54051;53.464;49.532;2023-05-20T11:34:00;21.52;46.16
67131;HTU21D;54051;53.464;49.532;2023-05-20T11:36:27;21.35;46.19
67131;HTU21D;54051;53.464;49.532;2023-05-20T11:38:56;21.32;45.68
67131;HTU21D;54051;53.464;49.532;2023-05-20T11:41:23;21.50;45.23
67131;HTU21D;54051;53.464;49.532;2023-05-20T11:43:56;21.60;44.68
67131;HTU21D;54051;53.464;49.532;2023-05-20T11:46:23;21.61;44.65
67131;HTU21D;54051;53.464;49.532;2023-05-20T11:48:53;21.92;44.23
67131;HTU21D;54051;53.464;49.532;2023-05-20T11:51:28;22.05;44.12
67131;HTU21D;54051;53.464;49.532;2023-05-20T11:54:03;22.18;43.36
67131;HTU21D;54051;53.464;49.532;2023-05-20T11:56:30;22.07;43.48
67131;HTU21D;54051;53.464;49.532;2023-05-20T11:58:56;22.11;43.43
67131;HTU21D;54051;53.464;49.532;2023-05-20T12:01:23;22.18;43.69
67131;HTU21D;54051;53.464;49.532;2023-05-20T12:03:49;22.11;44.16
67131;HTU21D;54051;53.464;49.532;2023-05-20T12:06:15;21.99;44.90
67131;HTU21D;54051;53.464;49.532;2023-05-20T12:08:41;21.82;45.02
67131;HTU21D;54051;53.464;49.532;2023-05-20T12:11:07;21.61;45.42
67131;HTU21D;54051;53.464;49.532;2023-05-20T12:13:33;21.68;45.67
67131;HTU21D;54051;53.464;49.532;2023-05-20T12:15:58;21.72;45.09
67131;HTU21D;54051;53.464;49.532;2023-05-20T12:18:24;21.58;45.35
67131;HTU21D;54051;53.464;49.532;2023-05-20T12:20:50;21.43;44.99
67131;HTU21D;54051;53.464;49.532;2023-05-20T12:23:16;21.46;45.16
67131;HTU21D;54051;53.464;49.532;2023-05-20T12:25:43;21.47;45.05
67131;HTU21D;54051;53.464;49.532;2023-05-20T12:28:10;21.61;44.37
67131;HTU21D;54051;53.464;49.532;2023-05-20T12:30:35;21.65;44.19
67131;HTU21D;54051;53.464;49.532;2023-05-20T12:33:02;21.75;44.07
67131;HTU21D;54051;53.464;49.532;2023-05-20T12:35:38;21.98;43.13
67131;HTU21D;54051;53.464;49.532;2023-05-20T12:38:04;22.16;42.49
67131;HTU21D;54051;53.464;49.532;2023-05-20T12:40:30;22.27;42.43
67131;HTU21D;54051;53.464;49.532;2023-05-20T12:42:56;22.46;43.21
67131;HTU21D;54051;53.464;49.532;2023-05-20T12:45:22;22.52;43.22
67131;HTU21D;54051;53.464;49.532;2023-05-20T12:47:48;22.68;43.50
67131;HTU21D;54051;53.464;49.532;2023-05-20T12:50:14;22.51;44.35
67131;HTU21D;54051;53.464;49.532;2023-05-20T12:52:40;22.44;43.69
67131;HTU21D;54051;53.464;49.532;2023-05-20T12:55:06;22.40;44.09
67131;HTU21D;54051;53.464;49.532;2023-05-20T12:57:47;22.43;42.25
67131;HTU21D;54051;53.464;49.532;2023-05-20T13:00:13;22.72;41.59
67131;HTU21D;54051;53.464;49.532;2023-05-20T13:02:39;22.86;41.54
67131;HTU21D;54051;53.464;49.532;2023-05-20T13:05:06;22.92;41.84
67131;HTU21D;54051;53.464;49.532;2023-05-20T13:07:32;22.81;41.44
67131;HTU21D;54051;53.464;49.532;2023-05-20T13:09:58;22.65;41.36
67131;HTU21D;54051;53.464;49.532;2023-05-20T13:12:24;22.24;42.93
67131;HTU21D;54051;53.464;49.532;2023-05-20T13:14:50;22.08;43.32
67131;HTU21D;54051;53.464;49.532;2023-05-20T13:17:16;21.85;44.22
67131;HTU21D;54051;53.464;49.532;2023-05-20T13:19:43;21.54;44.87
67131;HTU21D;54051;53.464;49.532;2023-05-20T13:22:10;21.53;44.80
67131;HTU21D;54051;53.464;49.532;2023-05-20T13:24:36;21.52;45.18
67131;HTU21D;54051;53.464;49.532;2023-05-20T13:27:03;21.38;45.61
67131;HTU21D;54051;53.464;49.532;2023-05-20T13:29:29;21.44;45.28
67131;HTU21D;54051;53.464;49.532;2023-05-20T13:31:55;21.53;45.00
67131;HTU21D;54051;53.464;49.532;2023-05-20T13:34:21;21.44;45.06
67131;HTU21D;54051;53.464;49.532;2023-05-20T13:36:46;21.45;45.20
67131;HTU21D;54051;53.464;49.532;2023-05-20T13:39:14;21.59;45.00
67131;HTU21D;54051;53.464;49.532;2023-05-20T13:41:40;21.57;45.04
67131;HTU21D;54051;53.464;49.532;2023-05-20T13:44:06;21.64;44.82
67131;HTU21D;54051;53.464;49.532;2023-05-20T13:46:32;21.76;44.73
67131;HTU21D;54051;53.464;49.532;2023-05-20T13:48:58;21.81;44.49
67131;HTU21D;54051;53.464;49.532;2023-05-20T13:51:24;21.93;44.81
67131;HTU21D;54051;53.464;49.532;2023-05-20T13:53:52;22.02;44.70
67131;HTU21D;54051;53.464;49.532;2023-05-20T13:56:18;21.99;44.45
67131;HTU21D;54051;53.464;49.532;2023-05-20T13:58:44;21.93;44.48
67131;HTU21D;54051;53.464;49.532;2023-05-20T14:01:10;21.80;45.06
67131;HTU21D;54051;53.464;49.532;2023-05-20T14:03:37;21.82;44.86
67131;HTU21D;54051;53.464;49.532;2023-05-20T14:06:05;21.73;45.03
67131;HTU21D;54051;53.464;49.532;2023-05-20T14:08:30;21.51;45.03
67131;HTU21D;54051;53.464;49.532;2023-05-20T14:10:56;21.40;45.66
67131;HTU21D;54051;53.464;49.532;2023-05-20T14:13:22;21.24;46.19
67131;HTU21D;54051;53.464;49.532;2023-05-20T14:15:49;21.08;46.57
67131;HTU21D;54051;53.464;49.532;2023-05-20T14:18:15;20.89;49.66
67131;HTU21D;54051;53.464;49.532;2023-05-20T14:20:44;20.63;51.95
67131;HTU21D;54051;53.464;49.532;2023-05-20T14:23:10;20.50;52.66
67131;HTU21D;54051;53.464;49.532;2023-05-20T14:25:36;20.46;52.61
67131;HTU21D;54051;53.464;49.532;2023-05-20T14:28:02;20.49;52.91
67131;HTU21D;54051;53.464;49.532;2023-05-20T14:30:28;20.66;52.47
67131;HTU21D;54051;53.464;49.532;2023-05-20T14:32:54;20.96;51.19
67131;HTU21D;54051;53.464;49.532;2023-05-20T14:35:20;21.01;50.96
67131;HTU21D;54051;53.464;49.532;2023-05-20T14:37:48;21.05;51.27
67131;HTU21D;54051;53.464;49.532;2023-05-20T14:40:17;20.95;51.95
67131;HTU21D;54051;53.464;49.532;2023-05-20T14:42:43;20.83;52.03
67131;HTU21D;54051;53.464;49.532;2023-05-20T14:45:09;20.73;51.76
67131;HTU21D;54051;53.464;49.532;2023-05-20T14:47:35;20.64;51.32
67131;HTU21D;54051;53.464;49.532;2023-05-20T14:50:01;20.51;51.43
67131;HTU21D;54051;53.464;49.532;2023-05-20T14:52:27;20.60;51.56
67131;HTU21D;54051;53.464;49.532;2023-05-20T14:54:52;20.51;51.50
67131;HTU21D;54051;53.464;49.532;2023-05-20T14:57:18;20.54;51.85
67131;HTU21D;54051;53.464;49.532;2023-05-20T14:59:45;20.64;51.64
67131;HTU21D;54051;53.464;49.532;2023-05-20T15:02:11;20.75;51.56
67131;HTU21D;54051;53.464;49.532;2023-05-20T15:04:37;20.76;52.59